Latest Weather Observations for Mount Moornapa

IDV60801

Issued at 4:05 am EST Saturday 30 August 2014 (issued every 30 minutes, with the page automatically refreshed every 10 minutes)

About weather observations | Map of weather stations | Latest weather observations for VIC | Other Formats
Station Details ID: 085296 Name: MOUNT MOORNAPA Lat: -37.75 Lon: 147.14 Height: 480.0 m
Data from the previous 72 hours. | See also: Recent months at Mount Moornapa
Date/Time
EST
Temp
°C
App
Temp
°C
Dew
Point
Rel
Hum
%
Delta-T
°C
Wind Press
QNH
hPa
Press
MSL
hPa
Rain
since 9 am
mm
Dir
 
Spd
km/h
Gust
km/h
Spd
kts
Gust
kts
30/04:00am 7.8 5.2 5.9 88 0.9 E 9 15 5 8 - - 0.0
30/03:30am 8.0 5.4 6.1 88 0.9 E 9 15 5 8 - - 0.0
30/03:00am 8.0 5.4 6.3 89 0.8 E 9 20 5 11 - - 0.0
30/02:30am 7.9 5.4 6.4 90 0.7 E 9 17 5 9 - - 0.0
30/02:00am 8.0 5.7 7.4 96 0.3 E 9 19 5 10 - - 0.0
30/01:30am 8.0 6.2 7.9 99 0.0 E 7 13 4 7 - - 0.0
30/01:00am 7.7 5.8 7.6 99 0.0 ENE 7 15 4 8 - - 0.0
30/12:30am 8.0 6.1 7.7 98 0.1 ENE 7 15 4 8 - - 0.0
30/12:00am 8.1 6.3 7.8 98 0.1 E 7 19 4 10 - - 0.0
 
Date/Time
EST
Temp
°C
App
Temp
°C
Dew
Point
Rel
Hum
%
Delta-T
°C
Wind Press
QNH
hPa
Press
MSL
hPa
Rain
since 9 am
mm
Dir
 
Spd
km/h
Gust
km/h
Spd
kts
Gust
kts
29/11:30pm 8.3 6.1 8.0 98 0.1 E 9 15 5 8 - - 0.0
29/11:00pm 8.5 6.2 7.6 94 0.4 E 9 19 5 10 - - 0.0
29/10:30pm 8.5 6.6 7.4 93 0.5 E 7 13 4 7 - - 0.0
29/10:00pm 8.6 6.7 7.4 92 0.6 E 7 11 4 6 - - 0.0
29/09:30pm 8.3 6.6 7.7 96 0.3 E 6 9 3 5 - - 0.0
29/09:00pm 8.7 6.9 7.8 94 0.4 ENE 7 13 4 7 - - 0.0
29/08:30pm 8.9 7.1 7.8 93 0.5 ENE 7 15 4 8 - - 0.0
29/08:00pm 9.1 7.2 7.7 91 0.7 ENE 7 13 4 7 - - 0.0
29/07:30pm 8.8 6.5 7.3 90 0.7 E 9 13 5 7 - - 0.0
29/07:00pm 8.8 6.6 7.7 93 0.5 E 9 13 5 7 - - 0.0
29/06:30pm 9.4 7.9 9.1 98 0.2 E 7 13 4 7 - - 0.0
29/06:00pm 9.9 8.6 9.3 96 0.3 ESE 6 11 3 6 - - 0.0
29/05:30pm 10.7 9.4 9.3 91 0.7 SE 6 9 3 5 - - 0.0
29/05:00pm 11.6 10.2 9.0 84 1.3 SE 6 9 3 5 - - 0.0
29/04:30pm 12.6 11.2 8.7 77 2.0 SE 6 11 3 6 - - 0.0
29/04:00pm 13.3 11.8 8.6 73 2.4 SE 6 9 3 5 - - 0.0
29/03:30pm 13.9 12.8 8.3 69 2.9 SE 4 9 2 5 - - 0.0
29/03:00pm 14.2 12.7 8.6 69 2.9 SSE 6 13 3 7 - - 0.0
29/02:30pm 14.4 13.0 9.0 70 2.8 SSE 6 9 3 5 - - 0.0
29/02:00pm 13.3 12.2 8.6 73 2.4 SE 4 7 2 4 - - 0.0
29/01:30pm 14.7 13.6 8.6 67 3.2 S 4 7 2 4 - - 0.0
29/01:00pm 14.1 12.7 8.9 71 2.7 SW 6 11 3 6 - - 0.0
29/12:30pm 13.5 12.6 9.4 76 2.1 S 4 7 2 4 - - 0.0
29/12:00pm 12.7 11.5 8.2 74 2.3 S 4 6 2 3 - - 0.0
29/11:30am 12.4 11.6 8.1 75 2.2 S 2 6 1 3 - - 0.0
29/11:00am 11.7 10.5 8.2 79 1.8 S 4 7 2 4 - - 0.0
29/10:30am 11.1 9.9 8.0 81 1.5 S 4 7 2 4 - - 0.0
29/10:00am 10.6 9.1 6.9 78 1.8 S 4 6 2 3 - - 0.0
29/09:30am 10.4 8.6 5.2 70 2.4 S 4 4 2 2 - - 0.0
29/09:00am 10.7 9.9 6.5 75 2.0 CALM 0 0 0 0 - - 0.2
29/08:30am 11.1 10.1 5.8 70 2.5 CALM 0 0 0 0 - - 0.2
29/08:00am 10.0 8.7 6.0 76 1.9 NW 2 4 1 2 - - 0.2
29/07:30am 9.3 7.6 5.7 78 1.7 NNW 4 6 2 3 - - 0.2
29/07:00am 9.0 7.0 6.1 82 1.4 NNW 6 6 3 3 - - 0.2
29/06:30am 8.8 7.2 6.4 85 1.1 NW 4 6 2 3 - - 0.2
29/06:00am 9.2 7.7 6.8 85 1.2 WNW 4 4 2 2 - - 0.2
29/05:30am 9.6 8.2 7.2 85 1.2 WNW 4 6 2 3 - - 0.2
29/05:00am 9.6 7.8 7.2 85 1.2 NW 6 6 3 3 - - 0.2
29/04:30am 9.3 7.3 6.4 82 1.4 NW 6 6 3 3 - - 0.2
29/04:00am 9.4 7.4 6.3 81 1.5 NW 6 6 3 3 - - 0.2
29/03:30am 10.1 9.1 7.2 82 1.4 NNW 2 4 1 2 - - 0.2
29/03:00am 9.4 6.6 5.2 75 1.9 N 9 11 5 6 - - 0.2
29/02:30am 8.8 5.8 6.1 83 1.3 N 11 15 6 8 - - 0.2
29/02:00am 9.5 7.2 7.3 86 1.1 N 9 13 5 7 - - 0.2
29/01:30am 9.1 7.2 7.4 89 0.8 N 7 9 4 5 - - 0.2
29/01:00am 9.4 7.6 7.3 87 1.0 NNW 6 6 3 3 - - 0.2
29/12:30am 9.8 8.1 7.7 87 1.0 NNW 6 6 3 3 - - 0.2
29/12:00am 9.4 7.6 7.3 87 1.0 NW 6 6 3 3 - - 0.2
 
Date/Time
EST
Temp
°C
App
Temp
°C
Dew
Point
Rel
Hum
%
Delta-T
°C
Wind Press
QNH
hPa
Press
MSL
hPa
Rain
since 9 am
mm
Dir
 
Spd
km/h
Gust
km/h
Spd
kts
Gust
kts
28/11:30pm 9.5 7.7 7.1 85 1.2 W 6 7 3 4 - - 0.2
28/11:00pm 10.0 8.7 7.6 85 1.2 NNW 4 4 2 2 - - 0.2
28/10:30pm 10.3 8.6 7.7 84 1.3 N 6 6 3 3 - - 0.2
28/10:00pm 9.8 8.1 7.6 86 1.1 N 6 7 3 4 - - 0.2
28/09:30pm 9.8 8.0 7.1 83 1.3 N 6 6 3 3 - - 0.2
28/09:00pm 10.3 8.3 6.3 76 1.9 NE 6 7 3 4 - - 0.2
28/08:30pm 10.4 8.4 6.2 75 2.0 NE 6 7 3 4 - - 0.2
28/08:00pm 10.3 8.6 6.1 75 2.0 ENE 4 6 2 3 - - 0.2
28/07:30pm 9.8 8.1 5.8 76 1.9 E 4 7 2 4 - - 0.2
28/07:00pm 9.9 8.2 6.1 77 1.8 E 4 7 2 4 - - 0.2
28/06:30pm 10.3 8.7 6.3 76 1.9 E 4 7 2 4 - - 0.2
28/06:00pm 9.9 8.1 7.2 83 1.3 E 6 11 3 6 - - 0.2
28/05:30pm 10.9 9.8 8.5 85 1.2 ESE 4 11 2 6 - - 0.2
28/05:00pm 11.8 10.4 8.8 82 1.5 ESE 6 11 3 6 - - 0.2
28/04:30pm 13.2 11.7 8.3 72 2.5 SSE 6 9 3 5 - - 0.2
28/04:00pm 13.6 12.0 8.0 69 2.8 SSE 6 9 3 5 - - 0.2
28/03:30pm 14.9 13.7 7.9 63 3.6 SSE 4 7 2 4 - - 0.2
28/03:00pm 15.1 14.1 8.8 66 3.3 SSE 4 7 2 4 - - 0.2
28/02:30pm 15.1 14.0 8.3 64 3.5 SE 4 7 2 4 - - 0.2
28/02:00pm 15.2 14.1 8.4 64 3.5 SE 4 9 2 5 - - 0.2
28/01:30pm 15.4 14.9 9.3 67 3.2 SE 2 6 1 3 - - 0.2
28/01:00pm 15.0 14.0 8.7 66 3.3 SSE 4 7 2 4 - - 0.2
28/12:30pm 14.8 13.8 8.7 67 3.2 SE 4 6 2 3 - - 0.0
28/12:00pm 14.8 14.1 8.7 67 3.2 SSE 2 7 1 4 - - 0.0
28/11:30am 13.8 13.1 8.4 70 2.8 SSE 2 6 1 3 - - 0.0
28/11:00am 13.1 12.0 7.1 67 3.0 SSE 2 7 1 4 - - 0.0
28/10:30am 13.2 11.6 6.3 63 3.4 NNE 4 7 2 4 - - 0.0
28/10:00am 12.7 11.6 6.7 67 3.0 NNE 2 7 1 4 - - 0.0
28/09:30am 10.7 8.4 5.0 68 2.7 N 6 7 3 4 - - 0.0
28/09:00am 9.6 6.8 5.0 73 2.1 N 9 15 5 8 - - 0.0
28/08:30am 8.5 5.2 4.3 75 1.9 N 11 17 6 9 - - 0.0
28/08:00am 7.8 4.4 3.8 76 1.8 N 11 19 6 10 - - 0.0
28/07:30am 7.6 3.7 3.6 76 1.8 N 13 17 7 9 - - 0.0
28/07:00am 6.9 3.0 3.5 79 1.5 N 13 15 7 8 - - 0.0
28/06:30am 7.1 3.3 3.9 80 1.4 N 13 15 7 8 - - 0.0
28/06:00am 7.5 4.9 4.1 79 1.5 N 7 11 4 6 - - 0.0
28/05:30am 7.3 4.7 4.1 80 1.4 N 7 11 4 6 - - 0.0
28/05:00am 7.5 5.2 4.6 82 1.3 N 6 9 3 5 - - 0.0
28/04:30am 7.9 5.4 5.0 82 1.3 N 7 9 4 5 - - 0.0
28/04:00am 8.1 5.9 5.2 82 1.3 N 6 7 3 4 - - 0.0
28/03:30am 8.5 6.4 5.8 83 1.3 N 6 7 3 4 - - 0.0
28/03:00am 8.2 6.5 6.0 86 1.0 NW 4 6 2 3 - - 0.0
28/02:30am 8.5 7.0 6.6 88 0.9 NNW 4 4 2 2 - - 0.0
28/02:00am 8.6 7.1 6.9 89 0.8 NW 4 6 2 3 - - 0.0
28/01:30am 8.3 6.4 6.9 91 0.7 NW 6 6 3 3 - - 0.0
28/01:00am 8.5 6.6 6.6 88 0.9 NW 6 7 3 4 - - 0.0
28/12:30am 8.3 6.3 6.4 88 0.9 NNW 6 7 3 4 - - 0.0
28/12:00am 8.2 6.3 6.5 89 0.8 WNW 6 9 3 5 - - 0.0
 
Date/Time
EST
Temp
°C
App
Temp
°C
Dew
Point
Rel
Hum
%
Delta-T
°C
Wind Press
QNH
hPa
Press
MSL
hPa
Rain
since 9 am
mm
Dir
 
Spd
km/h
Gust
km/h
Spd
kts
Gust
kts
27/11:30pm 8.9 7.4 6.9 87 1.0 WSW 4 7 2 4 - - 0.0
27/11:00pm 8.9 7.1 7.2 89 0.8 SW 6 7 3 4 - - 0.0
27/10:30pm 9.8 8.1 7.6 86 1.1 N 6 7 3 4 - - 0.0
27/10:00pm 9.6 7.7 7.5 87 1.0 NNE 7 9 4 5 - - 0.0
27/09:30pm 9.3 7.4 7.7 90 0.8 N 7 9 4 5 - - 0.0
27/09:00pm 8.8 7.0 8.0 95 0.4 N 7 11 4 6 - - 0.0
27/08:30pm 8.9 7.0 7.7 92 0.6 NNE 7 13 4 7 - - 0.0
27/08:00pm 9.6 8.0 7.9 89 0.8 ENE 6 9 3 5 - - 0.0
27/07:30pm 9.0 7.2 7.9 93 0.5 E 7 11 4 6 - - 0.0
27/07:00pm 8.7 7.0 7.6 93 0.5 ESE 6 7 3 4 - - 0.0
27/06:30pm 9.3 7.7 7.9 91 0.7 ESE 6 7 3 4 - - 0.0
27/06:00pm 9.6 7.9 7.4 86 1.1 ESE 6 9 3 5 - - 0.0
27/05:30pm 10.4 8.7 7.5 82 1.4 ESE 6 13 3 7 - - 0.0
27/05:00pm 11.8 10.1 7.7 76 2.0 ESE 6 9 3 5 - - 0.0
27/04:30pm 13.1 12.2 7.8 70 2.7 ESE 2 7 1 4 - - 0.0
27/04:00pm 14.0 12.7 7.8 66 3.1 SE 4 6 2 3 - - 0.0
27/03:30pm 13.8 11.8 6.4 61 3.6 SE 6 9 3 5 - - 0.0
27/03:00pm 14.4 13.0 7.2 62 3.6 SE 4 7 2 4 - - 0.0
27/02:30pm 14.3 13.1 8.0 66 3.2 SE 4 7 2 4 - - 0.0
27/02:00pm 14.4 12.7 7.7 64 3.4 SSE 6 7 3 4 - - 0.0
27/01:30pm 14.2 12.9 7.5 64 3.4 SE 4 6 2 3 - - 0.0
27/01:00pm 14.1 12.4 7.6 65 3.3 SSE 6 11 3 6 - - 0.0
27/12:30pm 14.0 12.7 7.5 65 3.3 SSE 4 9 2 5 - - 0.0
27/12:00pm 13.8 12.6 8.2 69 2.9 SE 4 9 2 5 - - 0.0
27/11:30am 13.7 13.2 9.4 75 2.3 SE 2 6 1 3 - - 0.0
27/11:00am 12.5 11.8 8.4 76 2.1 SSE 2 7 1 4 - - 0.0
27/10:30am 12.4 11.1 9.1 80 1.7 ESE 6 9 3 5 - - 0.0
27/10:00am 11.1 10.0 8.5 84 1.3 S 4 7 2 4 - - 0.0
27/09:30am 12.1 10.7 8.8 80 1.7 ESE 6 9 3 5 - - 0.0
27/09:00am 11.5 10.1 7.2 75 2.1 SE 4 6 2 3 - - 0.2
27/08:30am 10.2 8.8 7.3 82 1.4 ESE 4 6 2 3 - - 0.2
27/08:00am 9.9 8.7 6.6 80 1.6 ESE 2 6 1 3 - - 0.2
27/07:30am 9.6 8.8 6.5 81 1.5 CALM 0 0 0 0 - - 0.2
27/07:00am 8.8 7.1 5.9 82 1.4 W 4 6 2 3 - - 0.2
27/06:30am 8.7 7.0 7.5 92 0.6 W 6 7 3 4 - - 0.2
27/06:00am 8.5 6.8 6.1 85 1.1 N 4 9 2 5 - - 0.2
27/05:30am 8.0 5.0 6.1 88 0.9 N 11 13 6 7 - - 0.2
27/05:00am 8.8 6.2 6.3 84 1.2 N 9 13 5 7 - - 0.2
27/04:30am 8.8 6.2 7.6 92 0.6 N 11 11 6 6 - - 0.0

Other Formats:

Comma delimited format used in spreadsheet applications
http://www.bom.gov.au/fwo/IDV60801/IDV60801.95913.axf

JavaScript Object Notation format (JSON) in row-major order
http://www.bom.gov.au/fwo/IDV60801/IDV60801.95913.json